Time;durP1;ratioP1;P1;durP2;ratioP2;P2;SDS_P1;SDS_P2;PMS_P1;PMS_P2;Temp;Humidity;BMP_temperature;BMP_pressure;BME280_temperature;BME280_humidity;BME280_pressure;Samples;Min_cycle;Max_cycle;Signal;HPM_P1;HPM_P2
2021/05/31 00:02:07;;;;;;;5.75;5.15;;;;;;;;;;5094093;28;20024;-62
2021/05/31 00:04:32;;;;;;;6.80;5.38;;;;;;;;;;5093848;28;20020;-63
2021/05/31 00:07:01;;;;;;;7.75;5.03;;;;;;;;;;5075739;28;20008;-63
2021/05/31 00:09:29;;;;;;;7.85;5.45;;;;;;;;;;5091061;28;20024;-63
2021/05/31 00:11:54;;;;;;;6.53;5.68;;;;;;;;;;5093742;28;20396;-61
2021/05/31 00:14:20;;;;;;;9.75;6.85;;;;;;;;;;5075655;28;20032;-61
2021/05/31 00:16:45;;;;;;;8.27;6.35;;;;;;;;;;5072325;28;20016;-62
2021/05/31 00:19:12;;;;;;;12.90;6.55;;;;;;;;;;5093617;28;20032;-62
2021/05/31 00:21:38;;;;;;;7.68;5.63;;;;;;;;;;5075578;28;20016;-62
2021/05/31 00:24:04;;;;;;;7.65;5.20;;;;;;;;;;5093484;28;20035;-63
2021/05/31 00:26:29;;;;;;;7.57;4.22;;;;;;;;;;5093601;28;20016;-62
2021/05/31 00:28:55;;;;;;;4.45;4.03;;;;;;;;;;5093441;28;20031;-62
2021/05/31 00:31:20;;;;;;;4.50;4.10;;;;;;;;;;5093221;28;20020;-62
2021/05/31 00:33:46;;;;;;;4.80;4.07;;;;;;;;;;5093255;28;20028;-62
2021/05/31 00:36:11;;;;;;;5.75;4.30;;;;;;;;;;5093668;28;20035;-62
2021/05/31 00:38:39;;;;;;;5.85;3.90;;;;;;;;;;5093001;28;20040;-64
2021/05/31 00:41:12;;;;;;;3.88;3.58;;;;;;;;;;5093281;28;20035;-61
2021/05/31 00:43:38;;;;;;;4.78;4.15;;;;;;;;;;5093227;28;20063;-61
2021/05/31 00:46:05;;;;;;;4.03;3.70;;;;;;;;;;5092473;28;20492;-62
2021/05/31 00:48:31;;;;;;;5.63;3.95;;;;;;;;;;5093321;28;20051;-61
2021/05/31 00:50:57;;;;;;;5.75;3.53;;;;;;;;;;5093363;28;20465;-61
2021/05/31 00:53:23;;;;;;;4.57;4.18;;;;;;;;;;5093126;28;20024;-61
2021/05/31 00:55:49;;;;;;;4.15;3.75;;;;;;;;;;5092918;28;20489;-61
2021/05/31 00:58:16;;;;;;;4.60;4.07;;;;;;;;;;5093264;28;20473;-61
2021/05/31 01:00:42;;;;;;;5.60;4.03;;;;;;;;;;5093062;28;20103;-61
2021/05/31 01:03:08;;;;;;;3.92;3.63;;;;;;;;;;5093034;28;20077;-61
2021/05/31 01:05:33;;;;;;;3.88;3.58;;;;;;;;;;5075264;28;20012;-62
2021/05/31 01:08:01;;;;;;;5.10;3.95;;;;;;;;;;5093076;28;20031;-61
2021/05/31 01:10:37;;;;;;;5.75;4.38;;;;;;;;;;5087505;28;20363;-61
2021/05/31 01:13:21;;;;;;;6.90;5.00;;;;;;;;;;5074539;28;20436;-61
2021/05/31 01:15:52;;;;;;;14.95;6.85;;;;;;;;;;5087677;28;20462;-61
2021/05/31 01:18:23;;;;;;;11.63;6.40;;;;;;;;;;5092447;28;20089;-62
2021/05/31 01:20:56;;;;;;;8.48;5.40;;;;;;;;;;5090322;28;20095;-62
2021/05/31 01:23:23;;;;;;;7.50;5.40;;;;;;;;;;5092703;28;20139;-61
2021/05/31 01:26:02;;;;;;;8.43;5.72;;;;;;;;;;5072468;28;20008;-61
2021/05/31 01:28:33;;;;;;;10.07;5.68;;;;;;;;;;5090069;28;20017;-60
2021/05/31 01:30:59;;;;;;;8.65;6.00;;;;;;;;;;5092790;28;20077;-61
2021/05/31 01:33:27;;;;;;;11.30;6.20;;;;;;;;;;5092961;28;20027;-61
2021/05/31 01:35:54;;;;;;;9.93;7.07;;;;;;;;;;5093034;28;20103;-61
2021/05/31 01:38:20;;;;;;;10.30;6.32;;;;;;;;;;5092557;28;20035;-63
2021/05/31 01:40:49;;;;;;;9.27;6.53;;;;;;;;;;5092460;28;20433;-62
2021/05/31 01:43:16;;;;;;;9.70;6.63;;;;;;;;;;5074569;28;20492;-62
2021/05/31 01:45:42;;;;;;;10.05;6.88;;;;;;;;;;5092275;28;20012;-62
2021/05/31 01:48:09;;;;;;;9.18;6.10;;;;;;;;;;5089214;28;20005;-62
2021/05/31 01:50:36;;;;;;;9.40;5.97;;;;;;;;;;5092346;28;20094;-62
2021/05/31 01:53:03;;;;;;;9.27;6.20;;;;;;;;;;5092451;28;20138;-62
2021/05/31 01:55:29;;;;;;;5.97;4.93;;;;;;;;;;5090128;28;20027;-62
2021/05/31 01:57:54;;;;;;;5.00;3.78;;;;;;;;;;5094595;28;20020;-62
2021/05/31 02:00:20;;;;;;;4.30;3.92;;;;;;;;;;5096050;28;20458;-62
2021/05/31 02:02:45;;;;;;;4.38;3.30;;;;;;;;;;5095688;28;20366;-62
2021/05/31 02:05:14;;;;;;;3.60;3.30;;;;;;;;;;5095732;28;20028;-62
2021/05/31 02:07:39;;;;;;;3.78;3.47;;;;;;;;;;5095808;28;20069;-62
2021/05/31 02:10:06;;;;;;;4.32;3.92;;;;;;;;;;5077316;28;20107;-62
2021/05/31 02:12:37;;;;;;;3.67;3.38;;;;;;;;;;5095768;28;20020;-63
2021/05/31 02:15:07;;;;;;;6.05;3.25;;;;;;;;;;5095855;28;20054;-63
2021/05/31 02:17:47;;;;;;;3.50;3.20;;;;;;;;;;5095756;28;20035;-63
2021/05/31 02:20:13;;;;;;;3.10;2.90;;;;;;;;;;5094048;28;20024;-63
2021/05/31 02:22:40;;;;;;;3.40;3.15;;;;;;;;;;5096027;28;20019;-62
2021/05/31 02:25:06;;;;;;;3.70;3.40;;;;;;;;;;5095493;28;20081;-62
2021/05/31 02:27:32;;;;;;;4.45;3.15;;;;;;;;;;5095857;28;20020;-62
2021/05/31 02:29:59;;;;;;;4.53;3.60;;;;;;;;;;5095564;28;20028;-62
2021/05/31 02:32:24;;;;;;;6.07;3.42;;;;;;;;;;5095260;28;20058;-62
2021/05/31 02:34:49;;;;;;;4.90;3.78;;;;;;;;;;5095402;28;20024;-62
2021/05/31 02:37:15;;;;;;;4.93;4.10;;;;;;;;;;5095293;28;20035;-62
2021/05/31 02:39:40;;;;;;;3.95;3.42;;;;;;;;;;5076948;28;20040;-62
2021/05/31 02:42:06;;;;;;;3.42;3.13;;;;;;;;;;5095293;28;20436;-61
2021/05/31 02:44:32;;;;;;;4.20;3.55;;;;;;;;;;5095390;28;20473;-61
2021/05/31 02:46:57;;;;;;;3.72;3.40;;;;;;;;;;5095458;28;20016;-61
2021/05/31 02:49:23;;;;;;;3.67;3.42;;;;;;;;;;5095386;28;20035;-61
2021/05/31 02:51:49;;;;;;;5.70;3.13;;;;;;;;;;5095445;28;20016;-62
2021/05/31 02:54:14;;;;;;;3.40;3.10;;;;;;;;;;5095370;28;20552;-63
2021/05/31 02:56:40;;;;;;;6.18;3.75;;;;;;;;;;5095449;28;20462;-63
2021/05/31 02:59:05;;;;;;;3.88;3.08;;;;;;;;;;5076894;28;20032;-63
2021/05/31 03:01:31;;;;;;;4.30;3.13;;;;;;;;;;5095139;28;20035;-62
2021/05/31 03:03:56;;;;;;;3.70;3.40;;;;;;;;;;5094764;28;20466;-63
2021/05/31 03:06:22;;;;;;;5.32;2.95;;;;;;;;;;5095155;28;20039;-62
2021/05/31 03:08:47;;;;;;;4.60;3.45;;;;;;;;;;5094137;28;20031;-63
2021/05/31 03:11:13;;;;;;;4.13;3.45;;;;;;;;;;5095140;28;20004;-63
2021/05/31 03:13:38;;;;;;;3.92;3.50;;;;;;;;;;5076711;28;20016;-63
2021/05/31 03:16:04;;;;;;;4.32;3.97;;;;;;;;;;5094818;28;20358;-63
2021/05/31 03:18:29;;;;;;;4.28;3.88;;;;;;;;;;5094776;28;20020;-63
2021/05/31 03:20:55;;;;;;;3.67;3.33;;;;;;;;;;5094969;28;20097;-61
2021/05/31 03:23:20;;;;;;;4.82;3.25;;;;;;;;;;5076437;28;20020;-62
2021/05/31 03:25:46;;;;;;;3.78;3.13;;;;;;;;;;5094638;28;20019;-62
2021/05/31 03:28:11;;;;;;;3.58;3.28;;;;;;;;;;5094525;28;20016;-61
2021/05/31 03:30:36;;;;;;;3.67;3.15;;;;;;;;;;5094315;28;20020;-61
2021/05/31 03:33:02;;;;;;;3.42;3.10;;;;;;;;;;5094344;28;20123;-61
2021/05/31 03:35:28;;;;;;;3.78;3.38;;;;;;;;;;5094500;28;20500;-61
2021/05/31 03:37:54;;;;;;;3.20;3.00;;;;;;;;;;5094590;28;20426;-61
2021/05/31 03:40:21;;;;;;;2.88;2.67;;;;;;;;;;5094438;28;20068;-62
2021/05/31 03:42:50;;;;;;;5.00;3.42;;;;;;;;;;5094403;28;20024;-61
2021/05/31 03:45:16;;;;;;;3.78;3.47;;;;;;;;;;5094479;28;20115;-61
2021/05/31 03:47:41;;;;;;;3.83;3.28;;;;;;;;;;5094384;28;20063;-61
2021/05/31 03:50:07;;;;;;;5.15;3.55;;;;;;;;;;5094291;28;20012;-61
2021/05/31 03:52:33;;;;;;;3.95;3.28;;;;;;;;;;5094060;28;20634;-60
2021/05/31 03:54:59;;;;;;;3.60;3.30;;;;;;;;;;5076182;28;20031;-61
2021/05/31 03:57:24;;;;;;;4.63;3.17;;;;;;;;;;5094453;28;20028;-60
2021/05/31 03:59:52;;;;;;;3.58;3.28;;;;;;;;;;5094365;28;20031;-61
2021/05/31 04:02:17;;;;;;;3.28;3.00;;;;;;;;;;5094109;28;20058;-60
2021/05/31 04:04:45;;;;;;;3.60;3.30;;;;;;;;;;5094059;28;20063;-61
2021/05/31 04:13:00;;;;;;;4.90;2.80;;;;;;;;;;5012443;28;20110;-60
2021/05/31 04:15:26;;;;;;;4.72;2.85;;;;;;;;;;5059620;28;20498;-60
2021/05/31 04:17:51;;;;;;;2.95;2.67;;;;;;;;;;5092886;28;20016;-61
2021/05/31 04:20:17;;;;;;;5.95;3.08;;;;;;;;;;5093052;28;20040;-60
2021/05/31 04:22:43;;;;;;;3.10;2.90;;;;;;;;;;5093747;28;20367;-61
2021/05/31 04:25:09;;;;;;;5.47;2.65;;;;;;;;;;5076015;28;20072;-61
2021/05/31 04:27:35;;;;;;;5.07;2.60;;;;;;;;;;5093684;28;20111;-60
2021/05/31 04:30:00;;;;;;;3.88;2.50;;;;;;;;;;5093807;28;20115;-60
2021/05/31 04:32:26;;;;;;;3.17;2.42;;;;;;;;;;5093877;28;20107;-60
2021/05/31 04:34:51;;;;;;;2.67;2.50;;;;;;;;;;5094076;28;20016;-61
2021/05/31 04:37:17;;;;;;;4.78;2.67;;;;;;;;;;5094006;28;20024;-61
2021/05/31 04:39:42;;;;;;;3.35;2.53;;;;;;;;;;5093200;28;20048;-62
2021/05/31 04:42:10;;;;;;;4.53;2.90;;;;;;;;;;5090365;28;20114;-67
2021/05/31 04:44:36;;;;;;;3.33;2.95;;;;;;;;;;5093413;28;20035;-63
2021/05/31 04:47:02;;;;;;;2.92;2.67;;;;;;;;;;5093610;28;20070;-63
2021/05/31 04:49:27;;;;;;;2.92;2.72;;;;;;;;;;5074768;28;20458;-64
2021/05/31 04:51:53;;;;;;;2.78;2.58;;;;;;;;;;5093858;28;20032;-63
2021/05/31 04:54:18;;;;;;;3.67;2.78;;;;;;;;;;5093553;28;20061;-63
2021/05/31 04:56:44;;;;;;;2.80;2.60;;;;;;;;;;5091602;28;20051;-63
2021/05/31 04:59:10;;;;;;;5.35;2.70;;;;;;;;;;5093496;28;20019;-63
2021/05/31 05:01:35;;;;;;;3.03;2.67;;;;;;;;;;5093292;28;20142;-63
2021/05/31 05:04:01;;;;;;;2.55;2.35;;;;;;;;;;5075204;28;20016;-63
2021/05/31 05:06:27;;;;;;;3.10;2.65;;;;;;;;;;5093298;28;20036;-63
2021/05/31 05:08:54;;;;;;;6.13;2.53;;;;;;;;;;5093802;28;20023;-63
2021/05/31 05:11:22;;;;;;;3.50;2.50;;;;;;;;;;5093468;28;20024;-63
2021/05/31 05:13:50;;;;;;;3.15;2.33;;;;;;;;;;5093453;28;20474;-63
2021/05/31 05:16:16;;;;;;;2.88;2.67;;;;;;;;;;5093694;28;20028;-63
2021/05/31 05:18:42;;;;;;;2.65;2.45;;;;;;;;;;5093678;28;20378;-63
2021/05/31 05:21:08;;;;;;;2.80;2.38;;;;;;;;;;5075214;28;20105;-63
2021/05/31 05:23:33;;;;;;;3.10;2.50;;;;;;;;;;5093475;28;20061;-62
2021/05/31 05:25:59;;;;;;;2.53;2.42;;;;;;;;;;5093325;28;20111;-62
2021/05/31 05:28:24;;;;;;;2.53;2.30;;;;;;;;;;5093142;28;20016;-63
2021/05/31 05:30:51;;;;;;;3.05;2.53;;;;;;;;;;5092927;28;20031;-63
2021/05/31 05:33:17;;;;;;;2.92;2.63;;;;;;;;;;5095978;28;20012;-63
2021/05/31 05:35:49;;;;;;;2.78;2.58;;;;;;;;;;5097422;28;20128;-63
2021/05/31 05:48:44;;;;;;;3.50;2.65;;;;;;;;;;5065054;28;20498;-63
2021/05/31 05:51:09;;;;;;;2.60;2.40;;;;;;;;;;5096593;28;20031;-63
2021/05/31 05:53:37;;;;;;;2.40;2.20;;;;;;;;;;5096950;28;20032;-62
2021/05/31 05:56:03;;;;;;;3.50;1.98;;;;;;;;;;5097065;28;20051;-62
2021/05/31 05:58:29;;;;;;;3.90;2.28;;;;;;;;;;5096770;28;20028;-62
2021/05/31 06:00:58;;;;;;;3.20;2.00;;;;;;;;;;5096882;28;20031;-63
2021/05/31 06:03:24;;;;;;;2.95;1.83;;;;;;;;;;5096973;28;20020;-63
2021/05/31 06:05:50;;;;;;;4.25;2.20;;;;;;;;;;5096661;28;20022;-63
2021/05/31 06:08:16;;;;;;;3.53;2.25;;;;;;;;;;5096450;28;20031;-63
2021/05/31 06:10:41;;;;;;;1.98;1.88;;;;;;;;;;5096531;28;20065;-63
2021/05/31 06:13:07;;;;;;;4.90;2.00;;;;;;;;;;5096386;28;20050;-63
2021/05/31 06:15:32;;;;;;;1.80;1.70;;;;;;;;;;5096243;28;20012;-62
2021/05/31 06:17:57;;;;;;;3.05;2.10;;;;;;;;;;5096062;28;20034;-63
2021/05/31 06:20:23;;;;;;;2.00;1.90;;;;;;;;;;5094941;28;20024;-63
2021/05/31 06:22:50;;;;;;;2.05;1.85;;;;;;;;;;5096067;28;20028;-63
2021/05/31 06:25:15;;;;;;;2.08;1.88;;;;;;;;;;5096023;28;20026;-63
2021/05/31 06:27:41;;;;;;;3.08;1.60;;;;;;;;;;5095806;28;20032;-63
2021/05/31 06:30:07;;;;;;;1.50;1.40;;;;;;;;;;5095978;28;20024;-63
2021/05/31 06:32:32;;;;;;;2.17;1.77;;;;;;;;;;5095939;28;20024;-63
2021/05/31 06:34:58;;;;;;;1.60;1.50;;;;;;;;;;5095737;28;20024;-63
2021/05/31 06:37:23;;;;;;;4.15;1.38;;;;;;;;;;5095356;28;20107;-63
2021/05/31 06:39:49;;;;;;;2.75;1.40;;;;;;;;;;5095658;28;20066;-63
2021/05/31 06:42:14;;;;;;;2.33;1.50;;;;;;;;;;5095633;28;20052;-63
2021/05/31 06:44:40;;;;;;;3.08;1.58;;;;;;;;;;5092695;28;20032;-63
2021/05/31 06:47:08;;;;;;;1.50;1.20;;;;;;;;;;5076938;28;20497;-63
2021/05/31 06:49:34;;;;;;;2.75;1.33;;;;;;;;;;5095449;28;20016;-63
2021/05/31 06:52:00;;;;;;;1.65;1.40;;;;;;;;;;5095491;28;20042;-63
2021/05/31 06:54:25;;;;;;;2.05;1.67;;;;;;;;;;5077361;28;20020;-63
2021/05/31 06:56:51;;;;;;;1.50;1.40;;;;;;;;;;5095265;28;20077;-63
2021/05/31 06:59:16;;;;;;;7.72;1.80;;;;;;;;;;5095469;28;20031;-63
2021/05/31 07:01:43;;;;;;;9.35;2.83;;;;;;;;;;5095266;28;20474;-63
2021/05/31 07:04:09;;;;;;;2.83;1.88;;;;;;;;;;5095239;28;20531;-63
2021/05/31 07:06:35;;;;;;;2.55;1.55;;;;;;;;;;5095192;28;20055;-63
2021/05/31 07:09:01;;;;;;;1.88;1.50;;;;;;;;;;5094994;28;20072;-63
2021/05/31 07:11:27;;;;;;;4.00;1.98;;;;;;;;;;5095036;28;20531;-63
2021/05/31 07:13:55;;;;;;;1.60;1.50;;;;;;;;;;5095214;28;20020;-63
2021/05/31 07:16:20;;;;;;;2.13;1.92;;;;;;;;;;5095299;28;20031;-63
2021/05/31 07:18:46;;;;;;;1.98;1.45;;;;;;;;;;5076814;28;20012;-63
2021/05/31 07:21:12;;;;;;;2.20;1.75;;;;;;;;;;5094923;28;20026;-61
2021/05/31 07:23:38;;;;;;;2.75;1.80;;;;;;;;;;5094966;28;20034;-61
2021/05/31 07:26:07;;;;;;;1.70;1.50;;;;;;;;;;5095178;28;20020;-61
2021/05/31 07:28:34;;;;;;;3.55;2.03;;;;;;;;;;5095305;28;20109;-61
2021/05/31 07:30:59;;;;;;;1.83;1.20;;;;;;;;;;5094592;28;20043;-61
2021/05/31 07:33:25;;;;;;;1.30;1.20;;;;;;;;;;5095022;28;20406;-61
2021/05/31 07:35:51;;;;;;;4.97;1.60;;;;;;;;;;5093955;28;20024;-61
2021/05/31 07:38:16;;;;;;;5.97;2.03;;;;;;;;;;5075748;28;20016;-61
2021/05/31 07:40:42;;;;;;;16.40;4.45;;;;;;;;;;5076130;28;20082;-61
2021/05/31 07:43:08;;;;;;;4.45;2.28;;;;;;;;;;5094176;28;20398;-61
2021/05/31 07:45:35;;;;;;;3.63;1.80;;;;;;;;;;5093938;28;20028;-61
2021/05/31 07:48:00;;;;;;;1.92;1.83;;;;;;;;;;5094147;28;20056;-61
2021/05/31 07:50:26;;;;;;;1.00;1.00;;;;;;;;;;5094473;28;20462;-61
2021/05/31 07:52:52;;;;;;;1.75;1.63;;;;;;;;;;5094788;28;20016;-62
2021/05/31 07:55:18;;;;;;;1.73;1.50;;;;;;;;;;5094156;28;20035;-61
2021/05/31 07:57:44;;;;;;;1.30;1.20;;;;;;;;;;5094687;28;20050;-61
2021/05/31 08:00:11;;;;;;;2.15;1.40;;;;;;;;;;5094391;28;20421;-60
2021/05/31 08:02:42;;;;;;;1.67;1.48;;;;;;;;;;5094598;28;20028;-60
2021/05/31 08:05:08;;;;;;;3.47;1.80;;;;;;;;;;5094217;28;20032;-60
2021/05/31 08:07:33;;;;;;;3.70;1.30;;;;;;;;;;5094096;28;20024;-61
2021/05/31 08:09:59;;;;;;;2.28;1.40;;;;;;;;;;5093932;28;20474;-61
2021/05/31 08:12:24;;;;;;;6.43;3.65;;;;;;;;;;5075728;28;20458;-61
2021/05/31 08:14:50;;;;;;;6.78;2.90;;;;;;;;;;5093859;28;20110;-61
2021/05/31 08:17:15;;;;;;;2.90;1.95;;;;;;;;;;5093862;28;20024;-61
2021/05/31 08:19:41;;;;;;;2.10;1.52;;;;;;;;;;5093994;28;20031;-60
2021/05/31 08:22:08;;;;;;;2.55;1.25;;;;;;;;;;5093981;28;20012;-60
2021/05/31 08:24:33;;;;;;;2.78;1.38;;;;;;;;;;5094120;28;20082;-61
2021/05/31 08:26:59;;;;;;;1.77;1.27;;;;;;;;;;5075378;28;20023;-60
2021/05/31 08:29:25;;;;;;;1.42;1.33;;;;;;;;;;5093449;28;20032;-61
2021/05/31 08:31:50;;;;;;;1.77;1.38;;;;;;;;;;5094104;28;20016;-61
2021/05/31 08:34:16;;;;;;;2.88;1.50;;;;;;;;;;5093543;28;20054;-61
2021/05/31 08:36:42;;;;;;;3.08;1.70;;;;;;;;;;5093682;28;20023;-60
2021/05/31 08:39:09;;;;;;;2.30;1.50;;;;;;;;;;5093248;28;20055;-60
2021/05/31 08:41:35;;;;;;;2.63;1.33;;;;;;;;;;5093499;28;20107;-61
2021/05/31 08:44:00;;;;;;;2.67;1.40;;;;;;;;;;5093361;28;20124;-61
2021/05/31 08:46:25;;;;;;;4.22;1.92;;;;;;;;;;5093400;28;20034;-61
2021/05/31 08:48:52;;;;;;;3.05;1.58;;;;;;;;;;5093274;28;20028;-60
2021/05/31 08:51:19;;;;;;;1.58;1.48;;;;;;;;;;5093422;28;20108;-60
2021/05/31 08:53:44;;;;;;;3.25;2.00;;;;;;;;;;5075316;28;20035;-61
2021/05/31 08:56:10;;;;;;;1.90;1.73;;;;;;;;;;5093368;28;20020;-61
2021/05/31 08:58:36;;;;;;;2.78;1.52;;;;;;;;;;5093364;28;20485;-61
2021/05/31 09:01:02;;;;;;;1.50;1.40;;;;;;;;;;5093215;28;20023;-61
2021/05/31 09:03:28;;;;;;;1.52;1.42;;;;;;;;;;5093156;28;20106;-61
2021/05/31 09:05:58;;;;;;;3.03;1.55;;;;;;;;;;5093310;28;20488;-60
2021/05/31 09:08:23;;;;;;;1.73;1.50;;;;;;;;;;5092598;28;20111;-60
2021/05/31 09:10:52;;;;;;;12.52;2.60;;;;;;;;;;5093493;28;20107;-61
2021/05/31 09:13:34;;;;;;;3.15;1.67;;;;;;;;;;5093311;28;20081;-60
2021/05/31 09:16:06;;;;;;;1.77;1.60;;;;;;;;;;5092982;28;20027;-61
2021/05/31 09:18:32;;;;;;;3.15;1.65;;;;;;;;;;5093124;28;20052;-61
2021/05/31 09:21:08;;;;;;;3.17;1.77;;;;;;;;;;5092871;28;20105;-60
2021/05/31 09:23:35;;;;;;;2.83;1.80;;;;;;;;;;5093451;28;20035;-60
2021/05/31 09:26:04;;;;;;;2.38;1.50;;;;;;;;;;5093311;28;20085;-60
2021/05/31 09:28:29;;;;;;;2.17;1.70;;;;;;;;;;5093224;28;20046;-60
2021/05/31 09:30:56;;;;;;;1.65;1.55;;;;;;;;;;5093269;28;20526;-61
2021/05/31 09:33:22;;;;;;;1.77;1.30;;;;;;;;;;5093086;28;20028;-61
2021/05/31 09:35:47;;;;;;;2.25;1.45;;;;;;;;;;5093053;28;20066;-61
2021/05/31 09:38:16;;;;;;;2.95;1.70;;;;;;;;;;5092978;28;20036;-60
2021/05/31 09:40:55;;;;;;;3.58;1.50;;;;;;;;;;5093179;28;20470;-62
2021/05/31 09:43:24;;;;;;;2.00;1.40;;;;;;;;;;5093042;28;20040;-63
2021/05/31 09:45:49;;;;;;;2.42;1.50;;;;;;;;;;5092909;28;20028;-62
2021/05/31 09:48:15;;;;;;;2.25;1.50;;;;;;;;;;5092929;28;20032;-62
2021/05/31 09:50:41;;;;;;;1.40;1.30;;;;;;;;;;5093237;28;20012;-63
2021/05/31 09:53:11;;;;;;;1.90;1.15;;;;;;;;;;5092897;28;20032;-63
2021/05/31 09:55:38;;;;;;;4.13;1.60;;;;;;;;;;5093047;28;20025;-63
2021/05/31 09:58:08;;;;;;;1.20;1.10;;;;;;;;;;5092865;28;20474;-63
2021/05/31 10:00:35;;;;;;;2.47;1.20;;;;;;;;;;5092752;28;20070;-63
2021/05/31 10:03:16;;;;;;;1.88;1.50;;;;;;;;;;5092840;28;20027;-63
2021/05/31 10:10:55;;;;;;;3.65;1.35;;;;;;;;;;5093228;28;20512;-61
2021/05/31 10:13:22;;;;;;;3.33;1.15;;;;;;;;;;5092881;28;20009;-60
2021/05/31 10:15:49;;;;;;;3.72;1.40;;;;;;;;;;5092865;28;20032;-61
2021/05/31 10:18:16;;;;;;;1.38;1.27;;;;;;;;;;5093780;28;20021;-61
2021/05/31 10:20:41;;;;;;;1.98;1.58;;;;;;;;;;5096560;28;20059;-61
2021/05/31 10:23:08;;;;;;;2.47;1.40;;;;;;;;;;5078174;28;20043;-61
2021/05/31 10:25:34;;;;;;;1.35;1.20;;;;;;;;;;5078157;28;20024;-61
2021/05/31 10:28:07;;;;;;;1.50;1.20;;;;;;;;;;5096179;28;20474;-62
2021/05/31 10:30:43;;;;;;;3.15;1.10;;;;;;;;;;5096134;28;20074;-60
2021/05/31 10:33:16;;;;;;;1.30;1.20;;;;;;;;;;5095905;28;20035;-62
2021/05/31 10:35:43;;;;;;;2.05;1.20;;;;;;;;;;5096193;28;20035;-61
2021/05/31 10:38:17;;;;;;;2.22;1.00;;;;;;;;;;5095880;28;20017;-61
2021/05/31 10:40:45;;;;;;;2.17;1.10;;;;;;;;;;5077794;28;20405;-61
2021/05/31 10:43:11;;;;;;;2.55;1.30;;;;;;;;;;5095795;28;20028;-63
2021/05/31 10:45:37;;;;;;;2.17;1.10;;;;;;;;;;5095807;28;20032;-64
2021/05/31 10:48:12;;;;;;;2.20;0.98;;;;;;;;;;5095731;28;20024;-64
2021/05/31 10:50:40;;;;;;;0.90;0.90;;;;;;;;;;5094418;28;20036;-64
2021/05/31 10:53:19;;;;;;;2.15;1.10;;;;;;;;;;5095689;28;20016;-64
2021/05/31 10:55:54;;;;;;;1.08;0.98;;;;;;;;;;5095833;28;20528;-64
2021/05/31 10:58:21;;;;;;;2.05;1.42;;;;;;;;;;5095459;28;20020;-64
2021/05/31 11:01:13;;;;;;;2.35;1.40;;;;;;;;;;5095726;28;20023;-64
2021/05/31 11:03:44;;;;;;;1.50;1.17;;;;;;;;;;5091663;28;20539;-64
2021/05/31 11:06:11;;;;;;;1.30;1.20;;;;;;;;;;5094951;28;20020;-64
2021/05/31 11:08:46;;;;;;;1.63;1.00;;;;;;;;;;5094650;28;20016;-64
2021/05/31 11:11:22;;;;;;;12.73;1.88;;;;;;;;;;5074573;28;20036;-64
2021/05/31 11:13:49;;;;;;;1.33;1.23;;;;;;;;;;5077559;28;20035;-64
2021/05/31 11:16:15;;;;;;;2.58;1.20;;;;;;;;;;5095435;28;20020;-63
2021/05/31 11:18:41;;;;;;;1.98;1.10;;;;;;;;;;5095466;28;20126;-63
2021/05/31 11:21:07;;;;;;;2.90;1.20;;;;;;;;;;5095217;28;20085;-63
2021/05/31 11:23:33;;;;;;;1.92;1.10;;;;;;;;;;5077036;28;20413;-63
2021/05/31 11:25:59;;;;;;;1.13;0.80;;;;;;;;;;5095396;28;20017;-63
2021/05/31 11:28:25;;;;;;;0.88;0.88;;;;;;;;;;5095509;28;20032;-63
2021/05/31 11:30:51;;;;;;;1.65;1.20;;;;;;;;;;5094367;28;20020;-63
2021/05/31 11:33:17;;;;;;;2.13;0.75;;;;;;;;;;5094836;28;20115;-63
2021/05/31 11:35:46;;;;;;;1.85;1.17;;;;;;;;;;5094746;28;20039;-63
2021/05/31 11:38:12;;;;;;;2.90;1.00;;;;;;;;;;5094907;28;20023;-63
2021/05/31 11:40:40;;;;;;;1.23;0.93;;;;;;;;;;5094793;28;20040;-63
2021/05/31 11:43:06;;;;;;;0.73;0.73;;;;;;;;;;5094979;28;20032;-63
2021/05/31 11:45:39;;;;;;;0.75;0.60;;;;;;;;;;5094653;28;20023;-63
2021/05/31 11:48:06;;;;;;;1.20;1.10;;;;;;;;;;5094724;28;20119;-63
2021/05/31 11:50:35;;;;;;;4.63;1.00;;;;;;;;;;5094495;28;20067;-64
2021/05/31 11:53:04;;;;;;;4.45;1.10;;;;;;;;;;5094435;28;20020;-64
2021/05/31 11:55:30;;;;;;;1.38;0.90;;;;;;;;;;5094500;28;20036;-64
2021/05/31 11:57:56;;;;;;;2.00;0.90;;;;;;;;;;5094375;28;20024;-64
2021/05/31 12:00:23;;;;;;;1.13;0.90;;;;;;;;;;5094619;28;20027;-64
2021/05/31 12:02:49;;;;;;;0.93;0.75;;;;;;;;;;5076371;28;20024;-64
2021/05/31 12:05:15;;;;;;;0.88;0.80;;;;;;;;;;5094110;28;20469;-64
2021/05/31 12:07:43;;;;;;;1.35;0.70;;;;;;;;;;5076182;28;20089;-63
2021/05/31 12:10:09;;;;;;;1.70;0.93;;;;;;;;;;5094544;28;20385;-61
2021/05/31 12:12:34;;;;;;;2.88;1.67;;;;;;;;;;5094237;28;20032;-61
2021/05/31 12:15:00;;;;;;;1.67;1.20;;;;;;;;;;5094279;28;20020;-61
2021/05/31 12:17:27;;;;;;;1.17;0.75;;;;;;;;;;5094104;28;20024;-61
2021/05/31 12:19:53;;;;;;;1.30;1.20;;;;;;;;;;5093138;28;20074;-61
2021/05/31 12:22:19;;;;;;;3.75;1.08;;;;;;;;;;5093051;28;20036;-61
2021/05/31 12:24:45;;;;;;;1.63;0.80;;;;;;;;;;5093826;28;20389;-61
2021/05/31 12:27:15;;;;;;;2.67;1.10;;;;;;;;;;5093853;28;20027;-61
2021/05/31 12:29:42;;;;;;;1.20;1.10;;;;;;;;;;5093517;28;20031;-61
2021/05/31 12:32:09;;;;;;;1.50;1.40;;;;;;;;;;5092683;28;20024;-60
2021/05/31 12:34:35;;;;;;;2.55;1.00;;;;;;;;;;5094031;28;20020;-61
2021/05/31 12:37:01;;;;;;;0.80;0.80;;;;;;;;;;5093331;28;20027;-61
2021/05/31 12:39:27;;;;;;;2.55;1.02;;;;;;;;;;5065157;28;20406;-61
2021/05/31 12:41:54;;;;;;;1.58;1.08;;;;;;;;;;5072002;28;20039;-61
2021/05/31 12:44:20;;;;;;;2.47;1.20;;;;;;;;;;5073204;28;20031;-62
2021/05/31 12:46:46;;;;;;;3.42;1.48;;;;;;;;;;5072915;28;20505;-61
2021/05/31 12:49:15;;;;;;;2.50;1.20;;;;;;;;;;5071185;28;20012;-61
2021/05/31 12:51:51;;;;;;;2.15;1.00;;;;;;;;;;5071235;28;20462;-60
2021/05/31 12:54:17;;;;;;;1.30;1.00;;;;;;;;;;5071934;28;20024;-61
2021/05/31 12:56:42;;;;;;;2.47;1.00;;;;;;;;;;5072375;28;20020;-61
2021/05/31 12:59:09;;;;;;;0.77;0.77;;;;;;;;;;5072163;28;20395;-61
2021/05/31 13:01:34;;;;;;;3.33;1.10;;;;;;;;;;5072632;28;20024;-61
2021/05/31 13:04:00;;;;;;;2.03;1.02;;;;;;;;;;5072977;28;20035;-61
2021/05/31 13:06:38;;;;;;;3.53;0.90;;;;;;;;;;5073067;28;20032;-60
2021/05/31 13:09:06;;;;;;;1.60;1.50;;;;;;;;;;5072875;28;20131;-61
2021/05/31 13:11:45;;;;;;;2.60;1.45;;;;;;;;;;5072931;28;20374;-61
2021/05/31 13:14:16;;;;;;;1.65;1.48;;;;;;;;;;5072867;28;20055;-60
2021/05/31 13:16:51;;;;;;;3.72;1.60;;;;;;;;;;5072812;28;20467;-61
2021/05/31 13:19:18;;;;;;;3.53;1.30;;;;;;;;;;5072895;28;20032;-61
2021/05/31 13:21:43;;;;;;;2.85;1.45;;;;;;;;;;5072764;28;20095;-61
2021/05/31 13:24:08;;;;;;;2.75;1.60;;;;;;;;;;5072884;28;20055;-63
2021/05/31 13:26:36;;;;;;;2.20;1.63;;;;;;;;;;5072888;28;20462;-62
2021/05/31 13:29:02;;;;;;;2.50;1.30;;;;;;;;;;5072670;28;20067;-62
2021/05/31 13:31:28;;;;;;;4.20;1.80;;;;;;;;;;5072723;28;20044;-65
2021/05/31 13:33:54;;;;;;;9.68;1.70;;;;;;;;;;5072790;28;20056;-61
2021/05/31 13:36:22;;;;;;;1.40;1.27;;;;;;;;;;5072685;28;20096;-61
2021/05/31 13:38:48;;;;;;;1.50;1.40;;;;;;;;;;5076548;28;20040;-61
2021/05/31 13:41:14;;;;;;;1.33;1.27;;;;;;;;;;5093061;28;20108;-61
2021/05/31 13:43:40;;;;;;;2.15;1.50;;;;;;;;;;5092794;28;20043;-61
2021/05/31 13:46:06;;;;;;;2.92;1.40;;;;;;;;;;5092780;28;20066;-61
2021/05/31 13:48:32;;;;;;;2.63;1.80;;;;;;;;;;5092740;28;20029;-61
2021/05/31 13:50:59;;;;;;;1.27;1.17;;;;;;;;;;5092495;28;20032;-62
2021/05/31 13:53:27;;;;;;;3.78;1.55;;;;;;;;;;5094012;28;20031;-62
2021/05/31 13:55:53;;;;;;;2.90;1.55;;;;;;;;;;5096740;28;20094;-62
2021/05/31 13:58:19;;;;;;;2.25;1.60;;;;;;;;;;5096678;28;20090;-61
2021/05/31 14:00:46;;;;;;;7.07;2.13;;;;;;;;;;5096626;28;20047;-61
2021/05/31 14:03:11;;;;;;;2.28;1.60;;;;;;;;;;5078418;28;20458;-60
2021/05/31 14:05:39;;;;;;;4.38;1.58;;;;;;;;;;5078257;28;20032;-60
2021/05/31 14:08:05;;;;;;;2.35;1.58;;;;;;;;;;5096322;28;20024;-60
2021/05/31 14:10:31;;;;;;;3.15;1.60;;;;;;;;;;5096375;28;20402;-60
2021/05/31 14:12:58;;;;;;;3.03;1.60;;;;;;;;;;5077807;28;20028;-61
2021/05/31 14:15:23;;;;;;;3.80;1.60;;;;;;;;;;5096215;28;20035;-61
2021/05/31 14:17:51;;;;;;;3.35;1.50;;;;;;;;;;5096184;28;20020;-61
2021/05/31 14:20:17;;;;;;;1.80;1.70;;;;;;;;;;5095582;28;20363;-61
2021/05/31 14:22:43;;;;;;;2.92;1.58;;;;;;;;;;5095132;28;20024;-61
2021/05/31 14:25:09;;;;;;;2.42;1.30;;;;;;;;;;5095206;28;20036;-61
2021/05/31 14:27:35;;;;;;;2.05;1.63;;;;;;;;;;5077203;28;20378;-61
2021/05/31 14:30:02;;;;;;;2.13;1.30;;;;;;;;;;5095475;28;20020;-61
2021/05/31 14:32:27;;;;;;;2.65;1.38;;;;;;;;;;5096207;28;20016;-61
2021/05/31 14:34:53;;;;;;;3.60;1.52;;;;;;;;;;5096384;28;20021;-61
2021/05/31 14:37:19;;;;;;;1.33;1.23;;;;;;;;;;5096008;28;20020;-61
2021/05/31 14:39:45;;;;;;;2.10;1.63;;;;;;;;;;5095777;28;20382;-61
2021/05/31 14:42:11;;;;;;;2.33;1.88;;;;;;;;;;5096146;28;20031;-61
2021/05/31 14:44:36;;;;;;;2.35;1.30;;;;;;;;;;5095740;28;20042;-61
2021/05/31 14:47:02;;;;;;;1.63;1.35;;;;;;;;;;5095951;28;20036;-61
2021/05/31 14:49:28;;;;;;;1.75;1.65;;;;;;;;;;5095729;28;20078;-61
2021/05/31 14:51:54;;;;;;;2.78;1.90;;;;;;;;;;5095440;28;20024;-61
2021/05/31 14:54:21;;;;;;;3.28;1.80;;;;;;;;;;5095723;28;20016;-61
2021/05/31 14:56:47;;;;;;;2.33;1.80;;;;;;;;;;5095739;28;20028;-61
2021/05/31 14:59:12;;;;;;;1.60;1.50;;;;;;;;;;5094669;28;20020;-61
2021/05/31 15:01:39;;;;;;;5.75;1.42;;;;;;;;;;5076748;28;20036;-61
2021/05/31 15:04:06;;;;;;;4.43;1.60;;;;;;;;;;5094682;28;20077;-61